createdAt,value
2018-02-24T00:00:19.537Z,0.39
2018-02-24T00:01:19.289Z,0.23
2018-02-24T00:02:19.302Z,0.22
2018-02-24T00:03:19.312Z,0.22
2018-02-24T00:04:19.067Z,0.16
2018-02-24T00:05:19.722Z,0.25
2018-02-24T00:06:19.615Z,0.16
2018-02-24T00:07:19.352Z,0.16
2018-02-24T00:08:19.623Z,0.03
2018-02-24T00:09:19.632Z,0.04
2018-02-24T00:10:19.642Z,0.11
2018-02-24T00:11:19.649Z,0.22
2018-02-24T00:12:19.657Z,0.29
2018-02-24T00:13:19.430Z,0.25
2018-02-24T00:14:19.433Z,0.28
2018-02-24T00:15:19.443Z,0.26
2018-02-24T00:16:19.700Z,0.37
2018-02-24T00:17:19.720Z,0.44
2018-02-24T00:18:19.472Z,0.47
2018-02-24T00:19:19.236Z,0.4
2018-02-24T00:20:19.747Z,0.32
2018-02-24T00:21:19.509Z,0.26
2018-02-24T00:22:19.516Z,0.31
2018-02-24T00:23:19.777Z,0.4
2018-02-24T00:24:19.533Z,0.55
2018-02-24T00:25:19.294Z,0.58
2018-02-24T00:26:19.554Z,0.65
2018-02-24T00:27:19.827Z,0.5
2018-02-24T00:28:19.836Z,0.59
2018-02-24T00:29:19.846Z,0.55
2018-02-24T00:30:19.854Z,0.49
2018-02-24T00:31:19.866Z,0.46
2018-02-24T00:32:19.622Z,0.5
2018-02-24T00:33:19.890Z,0.52
2018-02-24T00:34:19.899Z,0.47
2018-02-24T00:35:19.903Z,0.56
2018-02-24T00:36:19.662Z,0.56
2018-02-24T00:37:19.675Z,0.55
2018-02-24T00:38:19.942Z,0.55
2018-02-24T00:39:19.946Z,0.39
2018-02-24T00:40:19.708Z,0.49
2018-02-24T00:41:19.976Z,0.59
2018-02-24T00:42:19.827Z,0.65
2018-02-24T00:43:19.997Z,0.58
2018-02-24T00:44:20.009Z,0.52
2018-02-24T00:45:20.020Z,0.49
2018-02-24T00:46:19.518Z,0.46
2018-02-24T00:47:20.039Z,0.55
2018-02-24T00:48:20.051Z,0.55
2018-02-24T00:49:19.550Z,0.63
2018-02-24T00:50:19.814Z,0.68
2018-02-24T00:51:20.083Z,0.49
2018-02-24T00:52:20.091Z,0.56
2018-02-24T00:53:20.109Z,0.59
2018-02-24T00:54:19.860Z,0.68
2018-02-24T00:55:19.868Z,0.66
2018-02-24T00:56:19.627Z,0.62
2018-02-24T00:57:20.145Z,0.58
2018-02-24T00:58:19.904Z,0.66
2018-02-24T00:59:19.912Z,0.41
2018-02-24T01:00:20.204Z,0.52
2018-02-24T01:01:19.939Z,0.49
2018-02-24T01:02:20.199Z,0.43
2018-02-24T01:03:20.215Z,0.47
2018-02-24T01:04:19.969Z,0.49
2018-02-24T01:05:20.247Z,0.52
2018-02-24T01:06:19.734Z,0.34
2018-02-24T01:07:20.012Z,0.34
2018-02-24T01:08:20.211Z,0.32
2018-02-24T01:09:20.022Z,0.4
2018-02-24T01:10:20.288Z,0.41
2018-02-24T01:11:20.042Z,0.39
2018-02-24T01:12:20.319Z,0.37
2018-02-24T01:13:20.064Z,0.43
2018-02-24T01:14:20.088Z,0.4
2018-02-24T01:15:20.343Z,0.46
2018-02-24T01:16:20.351Z,0.5
2018-02-24T01:17:20.109Z,0.49
2018-02-24T01:18:20.228Z,0.5
2018-02-24T01:19:20.125Z,0.46
2018-02-24T01:20:20.136Z,0.5
2018-02-24T01:21:20.154Z,0.46
2018-02-24T01:22:20.415Z,0.34
2018-02-24T01:23:20.473Z,0.26
2018-02-24T01:24:20.444Z,0.26
2018-02-24T01:25:20.195Z,0.26
2018-02-24T01:26:20.461Z,0.31
2018-02-24T01:27:20.468Z,0.23
2018-02-24T01:28:20.581Z,0.36
2018-02-24T01:29:20.488Z,0.23
2018-02-24T01:30:20.501Z,0.34
2018-02-24T01:31:20.513Z,0.36
2018-02-24T01:32:20.523Z,0.26
2018-02-24T01:33:20.568Z,0.21
2018-02-24T01:34:20.548Z,0.19
2018-02-24T01:35:20.419Z,0.12
2018-02-24T01:36:20.329Z,0.07
2018-02-24T01:37:20.324Z,0.21
2018-02-24T01:38:20.386Z,0.22
2018-02-24T01:39:20.604Z,0.29
2018-02-24T01:40:20.608Z,0.18
2018-02-24T01:41:20.364Z,0.29
2018-02-24T01:42:20.627Z,0.22
2018-02-24T01:43:20.646Z,0.18
2018-02-24T01:44:20.648Z,0.28
2018-02-24T01:45:20.410Z,0.12
2018-02-24T01:46:20.421Z,0.05
2018-02-24T01:47:20.678Z,0.04
2018-02-24T01:48:20.705Z,0.1
2018-02-24T01:49:20.701Z,0.12
2018-02-24T01:50:20.718Z,0.22
2018-02-24T01:51:20.471Z,0.16
2018-02-24T01:52:20.739Z,0.26
2018-02-24T01:53:20.566Z,0.21
2018-02-24T01:54:20.761Z,0.26
2018-02-24T01:55:20.515Z,0.21
2018-02-24T01:56:20.525Z,0.28
2018-02-24T01:57:20.280Z,0.15
2018-02-24T01:58:20.844Z,0.04
2018-02-24T01:59:20.834Z,0.15
2018-02-24T02:00:20.822Z,0.12
2018-02-24T02:01:20.585Z,0.18
2018-02-24T02:02:20.839Z,0.31
2018-02-24T02:03:20.856Z,0.32
2018-02-24T02:04:20.608Z,0.41
2018-02-24T02:05:20.875Z,0.26
2018-02-24T02:06:20.900Z,0.28
2018-02-24T02:07:20.647Z,0.22
2018-02-24T02:08:20.983Z,0.22
2018-02-24T02:09:20.712Z,0.25
2018-02-24T02:10:20.418Z,0.26
2018-02-24T02:11:20.936Z,0.23
2018-02-24T02:12:20.948Z,0.11
2018-02-24T02:13:20.970Z,0.1
2018-02-24T02:14:20.712Z,0.11
2018-02-24T02:15:21.005Z,0.12
2018-02-24T02:16:20.736Z,0.16
2018-02-24T02:17:21.002Z,0.16
2018-02-24T02:18:20.497Z,0.25
2018-02-24T02:19:20.773Z,0.15
2018-02-24T02:20:21.035Z,0.21
2018-02-24T02:21:20.794Z,0.11
2018-02-24T02:22:21.049Z,0.19
2018-02-24T02:23:20.808Z,0.08
2018-02-24T02:24:20.867Z,0.04
2018-02-24T02:25:20.832Z,0.05
2018-02-24T02:26:21.091Z,0.01
2018-02-24T02:27:20.851Z,-0.02
2018-02-24T02:28:21.115Z,0.04
2018-02-24T02:29:20.878Z,0.11
2018-02-24T02:30:20.890Z,0.21
2018-02-24T02:31:20.903Z,0.11
2018-02-24T02:32:21.161Z,0.23
2018-02-24T02:33:21.167Z,0.32
2018-02-24T02:34:21.188Z,0.28
2018-02-24T02:35:21.186Z,0.21
2018-02-24T02:36:21.213Z,0.21
2018-02-24T02:37:21.234Z,-0.06
2018-02-24T02:38:21.220Z,0.04
2018-02-24T02:39:21.377Z,0
2018-02-24T02:40:20.986Z,0.03
2018-02-24T02:41:20.999Z,0.08
2018-02-24T02:42:21.264Z,-0.06
2018-02-24T02:43:21.276Z,-0.23
2018-02-24T02:44:21.286Z,-0.13
2018-02-24T02:45:21.288Z,-0.14
2018-02-24T02:46:21.322Z,-0.17
2018-02-24T02:47:21.311Z,-0.02
2018-02-24T02:48:21.320Z,0.07
2018-02-24T02:49:20.829Z,0.12
2018-02-24T02:50:21.341Z,0.07
2018-02-24T02:51:21.356Z,0.1
2018-02-24T02:52:21.107Z,0.19
2018-02-24T02:53:21.381Z,-0.06
2018-02-24T02:54:21.188Z,0.03
2018-02-24T02:55:21.400Z,-0.17
2018-02-24T02:56:21.406Z,-0.08
2018-02-24T02:57:21.416Z,-0.17
2018-02-24T02:58:21.423Z,0.03
2018-02-24T02:59:21.190Z,-0.07
2018-02-24T03:00:21.193Z,0.1
2018-02-24T03:01:21.461Z,-0.03
2018-02-24T03:02:21.473Z,0.07
2018-02-24T03:03:21.230Z,0
2018-02-24T03:04:21.484Z,0.08
2018-02-24T03:05:21.496Z,0.03
2018-02-24T03:06:21.517Z,0.04
2018-02-24T03:07:21.523Z,0.08
2018-02-24T03:08:21.527Z,0.01
2018-02-24T03:09:21.588Z,-0.03
2018-02-24T03:10:21.549Z,0.05
2018-02-24T03:11:21.303Z,0.11
2018-02-24T03:12:21.316Z,0.12
2018-02-24T03:13:21.579Z,0.11
2018-02-24T03:14:21.334Z,0.19
2018-02-24T03:15:21.609Z,-0.03
2018-02-24T03:16:21.607Z,0
2018-02-24T03:17:21.374Z,-0.02
2018-02-24T03:18:21.122Z,0.03
2018-02-24T03:19:21.642Z,-0.17
2018-02-24T03:20:21.657Z,-0.02
2018-02-24T03:21:21.660Z,-0.13
2018-02-24T03:22:21.673Z,-0.1
2018-02-24T03:23:21.173Z,0.07
2018-02-24T03:24:21.490Z,0
2018-02-24T03:25:21.446Z,-0.11
2018-02-24T03:26:21.731Z,-0.08
2018-02-24T03:27:21.722Z,0
2018-02-24T03:28:21.497Z,0.01
2018-02-24T03:29:21.751Z,-0.06
2018-02-24T03:30:21.763Z,0.08
2018-02-24T03:31:21.771Z,0.15
2018-02-24T03:32:21.776Z,0.08
2018-02-24T03:33:21.533Z,-0.08
2018-02-24T03:34:21.793Z,-0.06
2018-02-24T03:35:21.824Z,-0.03
2018-02-24T03:36:21.558Z,0.05
2018-02-24T03:37:21.573Z,-0.11
2018-02-24T03:38:21.580Z,-0.18
2018-02-24T03:39:21.640Z,-0.29
2018-02-24T03:40:21.607Z,-0.21
2018-02-24T03:41:21.612Z,-0.32
2018-02-24T03:42:21.885Z,-0.32
2018-02-24T03:43:21.896Z,-0.28
2018-02-24T03:44:21.895Z,-0.2
2018-02-24T03:45:21.908Z,-0.17
2018-02-24T03:46:21.413Z,-0.18
2018-02-24T03:47:21.673Z,-0.17
2018-02-24T03:48:21.683Z,-0.25
2018-02-24T03:49:21.698Z,-0.17
2018-02-24T03:50:21.707Z,-0.31
2018-02-24T03:51:21.977Z,-0.32
2018-02-24T03:52:21.722Z,-0.28
2018-02-24T03:53:21.990Z,-0.38
2018-02-24T03:54:21.793Z,-0.43
2018-02-24T03:55:21.753Z,-0.31
2018-02-24T03:56:21.765Z,-0.21
2018-02-24T03:57:21.777Z,-0.18
2018-02-24T03:58:22.038Z,-0.39
2018-02-24T03:59:21.791Z,-0.46
2018-02-24T04:00:22.056Z,-0.26
2018-02-24T04:01:22.072Z,-0.35
2018-02-24T04:02:21.836Z,-0.35
2018-02-24T04:03:21.837Z,-0.35
2018-02-24T04:04:22.103Z,-0.35
2018-02-24T04:05:22.109Z,-0.43
2018-02-24T04:06:21.869Z,-0.39
2018-02-24T04:07:21.871Z,-0.35
2018-02-24T04:08:22.137Z,-0.38
2018-02-24T04:09:22.195Z,-0.21
2018-02-24T04:10:21.904Z,-0.29
2018-02-24T04:11:22.183Z,-0.36
2018-02-24T04:12:22.180Z,-0.31
2018-02-24T04:13:22.201Z,-0.35
2018-02-24T04:14:21.945Z,-0.35
2018-02-24T04:15:21.952Z,-0.28
2018-02-24T04:16:21.980Z,-0.26
2018-02-24T04:17:22.236Z,-0.41
2018-02-24T04:18:22.238Z,-0.49
2018-02-24T04:19:21.997Z,-0.57
2018-02-24T04:20:22.267Z,-0.39
2018-02-24T04:21:22.264Z,-0.44
2018-02-24T04:22:21.769Z,-0.39
2018-02-24T04:23:22.293Z,-0.36
2018-02-24T04:24:22.353Z,-0.32
2018-02-24T04:25:22.312Z,-0.46
2018-02-24T04:26:22.318Z,-0.43
2018-02-24T04:27:21.820Z,-0.47
2018-02-24T04:28:21.828Z,-0.34
2018-02-24T04:29:22.351Z,-0.34
2018-02-24T04:30:22.108Z,-0.32
2018-02-24T04:31:22.370Z,-0.43
2018-02-24T04:32:22.152Z,-0.38
2018-02-24T04:33:22.139Z,-0.5
2018-02-24T04:34:22.249Z,-0.41
2018-02-24T04:35:21.902Z,-0.56
2018-02-24T04:36:22.418Z,-0.68
2018-02-24T04:37:22.430Z,-0.68
2018-02-24T04:38:22.187Z,-0.74
2018-02-24T04:39:21.995Z,-0.7
2018-02-24T04:40:21.953Z,-0.86
2018-02-24T04:41:22.467Z,-0.77
2018-02-24T04:42:21.970Z,-0.77
2018-02-24T04:43:21.981Z,-0.83
2018-02-24T04:44:22.496Z,-0.78
2018-02-24T04:45:22.255Z,-0.67
2018-02-24T04:46:22.266Z,-0.68
2018-02-24T04:47:22.273Z,-0.72
2018-02-24T04:48:22.282Z,-0.7
2018-02-24T04:49:22.551Z,-0.64
2018-02-24T04:50:22.307Z,-0.68
2018-02-24T04:51:22.060Z,-0.68
2018-02-24T04:52:22.573Z,-0.7
2018-02-24T04:53:22.588Z,-0.64
2018-02-24T04:54:22.644Z,-0.57
2018-02-24T04:55:22.100Z,-0.5
2018-02-24T04:56:22.109Z,-0.5
2018-02-24T04:57:22.629Z,-0.34
2018-02-24T04:58:22.381Z,-0.49
2018-02-24T04:59:22.651Z,-0.36
2018-02-24T05:00:22.737Z,-0.29
2018-02-24T05:01:22.160Z,-0.36
2018-02-24T05:02:22.678Z,-0.35
2018-02-24T05:03:22.694Z,-0.35
2018-02-24T05:04:22.445Z,-0.43
2018-02-24T05:05:22.704Z,-0.52
2018-02-24T05:06:22.466Z,-0.72
2018-02-24T05:07:22.473Z,-0.62
2018-02-24T05:08:22.746Z,-0.71
2018-02-24T05:09:22.547Z,-0.7
2018-02-24T05:10:22.251Z,-0.61
2018-02-24T05:11:22.770Z,-0.61
2018-02-24T05:12:22.778Z,-0.62
2018-02-24T05:13:22.537Z,-0.7
2018-02-24T05:14:22.546Z,-0.62
2018-02-24T05:15:22.815Z,-0.64
2018-02-24T05:16:22.310Z,-0.7
2018-02-24T05:17:22.575Z,-0.75
2018-02-24T05:18:22.840Z,-0.75
2018-02-24T05:19:22.708Z,-0.78
2018-02-24T05:20:22.859Z,-0.68
2018-02-24T05:21:22.618Z,-0.62
2018-02-24T05:22:22.880Z,-0.64
2018-02-24T05:23:22.639Z,-0.83
2018-02-24T05:24:22.951Z,-0.83
2018-02-24T05:25:22.659Z,-0.71
2018-02-24T05:26:22.926Z,-0.78
2018-02-24T05:27:22.680Z,-0.71
2018-02-24T05:28:22.688Z,-0.72
2018-02-24T05:29:23.002Z,-0.7
2018-02-24T05:30:22.985Z,-0.96
2018-02-24T05:31:22.971Z,-0.85
2018-02-24T05:32:22.984Z,-0.75
2018-02-24T05:33:22.740Z,-0.72
2018-02-24T05:34:22.745Z,-0.78
2018-02-24T05:35:23.008Z,-0.8
2018-02-24T05:36:22.770Z,-0.74
2018-02-24T05:37:22.780Z,-0.64
2018-02-24T05:38:22.789Z,-0.78
2018-02-24T05:39:22.796Z,-0.82
2018-02-24T05:40:23.062Z,-0.93
2018-02-24T05:41:23.071Z,-0.93
2018-02-24T05:42:23.084Z,-0.78
2018-02-24T05:43:23.094Z,-0.83
2018-02-24T05:44:23.153Z,-0.82
2018-02-24T05:45:23.108Z,-0.83
2018-02-24T05:46:23.118Z,-0.86
2018-02-24T05:47:23.129Z,-0.94
2018-02-24T05:48:22.884Z,-0.86
2018-02-24T05:49:22.901Z,-0.99
2018-02-24T05:50:22.905Z,-0.96
2018-02-24T05:51:22.931Z,-0.91
2018-02-24T05:52:23.176Z,-0.85
2018-02-24T05:53:22.932Z,-0.97
2018-02-24T05:54:23.199Z,-0.99
2018-02-24T05:55:22.953Z,-1.02
2018-02-24T05:56:23.227Z,-1.04
2018-02-24T05:57:22.973Z,-0.99
2018-02-24T05:58:22.982Z,-1.02
2018-02-24T05:59:23.046Z,-1.05
2018-02-24T06:00:23.005Z,-1.09
2018-02-24T06:01:23.265Z,-1.22
2018-02-24T06:02:23.282Z,-1.19
2018-02-24T06:03:23.285Z,-1.25
2018-02-24T06:04:23.040Z,-1.09
2018-02-24T06:05:23.064Z,-1.04
2018-02-24T06:06:23.317Z,-1.04
2018-02-24T06:07:23.325Z,-0.91
2018-02-24T06:08:23.086Z,-0.96
2018-02-24T06:09:23.093Z,-0.89
2018-02-24T06:10:23.359Z,-1.02
2018-02-24T06:11:23.113Z,-1.07
2018-02-24T06:12:23.387Z,-1.02
2018-02-24T06:13:23.387Z,-1.04
2018-02-24T06:14:23.191Z,-1.11
2018-02-24T06:15:23.156Z,-1.02
2018-02-24T06:16:23.170Z,-1.04
2018-02-24T06:17:23.430Z,-1.17
2018-02-24T06:18:23.439Z,-1.08
2018-02-24T06:19:23.199Z,-1.07
2018-02-24T06:20:23.204Z,-1.05
2018-02-24T06:21:23.233Z,-1.07
2018-02-24T06:22:23.479Z,-1.05
2018-02-24T06:23:23.238Z,-0.86
2018-02-24T06:24:23.339Z,-0.78
2018-02-24T06:25:23.252Z,-0.83
2018-02-24T06:26:23.256Z,-0.75
2018-02-24T06:27:23.268Z,-0.68
2018-02-24T06:28:23.532Z,-0.65
2018-02-24T06:29:23.589Z,-0.64
2018-02-24T06:30:23.553Z,-0.65
2018-02-24T06:31:23.308Z,-0.59
2018-02-24T06:32:23.585Z,-0.5
2018-02-24T06:33:23.591Z,-0.59
2018-02-24T06:34:23.598Z,-0.67
2018-02-24T06:35:23.608Z,-0.72
2018-02-24T06:36:23.614Z,-0.78
2018-02-24T06:37:23.621Z,-0.94
2018-02-24T06:38:23.627Z,-0.86
2018-02-24T06:39:23.638Z,-0.77
2018-02-24T06:40:23.656Z,-0.67
2018-02-24T06:41:23.405Z,-0.74
2018-02-24T06:42:23.417Z,-0.67
2018-02-24T06:43:23.680Z,-0.65
2018-02-24T06:44:23.234Z,-0.83
2018-02-24T06:45:23.704Z,-0.7
2018-02-24T06:46:23.710Z,-0.78
2018-02-24T06:47:23.466Z,-0.77
2018-02-24T06:48:23.729Z,-0.72
2018-02-24T06:49:23.740Z,-0.71
2018-02-24T06:50:23.496Z,-0.65
2018-02-24T06:51:23.761Z,-0.65
2018-02-24T06:52:23.770Z,-0.78
2018-02-24T06:53:23.785Z,-0.75
2018-02-24T06:54:23.537Z,-0.85
2018-02-24T06:55:23.548Z,-0.77
2018-02-24T06:56:23.561Z,-0.74
2018-02-24T06:57:23.824Z,-0.85
2018-02-24T06:58:23.577Z,-0.83
2018-02-24T06:59:23.640Z,-0.74
2018-02-24T07:00:23.599Z,-0.82
2018-02-24T07:01:23.867Z,-0.78
2018-02-24T07:02:23.624Z,-0.67
2018-02-24T07:03:23.896Z,-0.77
2018-02-24T07:04:23.900Z,-0.86
2018-02-24T07:05:23.655Z,-0.85
2018-02-24T07:06:23.660Z,-0.83
2018-02-24T07:07:24.028Z,-0.8
2018-02-24T07:08:23.682Z,-0.72
2018-02-24T07:09:23.944Z,-0.85
2018-02-24T07:10:23.703Z,-0.99
2018-02-24T07:11:23.715Z,-0.83
2018-02-24T07:12:23.973Z,-0.94
2018-02-24T07:13:23.993Z,-1.04
2018-02-24T07:14:24.044Z,-1.05
2018-02-24T07:15:23.750Z,-0.97
2018-02-24T07:16:23.778Z,-1.04
2018-02-24T07:17:23.513Z,-0.96
2018-02-24T07:18:24.101Z,-0.97
2018-02-24T07:19:23.792Z,-0.97
2018-02-24T07:20:24.053Z,-0.97
2018-02-24T07:21:24.068Z,-1.01
2018-02-24T07:22:24.083Z,-0.97
2018-02-24T07:23:24.094Z,-0.83
2018-02-24T07:24:24.095Z,-0.72
2018-02-24T07:25:24.105Z,-0.72
2018-02-24T07:26:23.866Z,-0.62
2018-02-24T07:27:24.129Z,-0.53
2018-02-24T07:28:24.136Z,-0.61
2018-02-24T07:29:24.298Z,-0.61
2018-02-24T07:30:24.155Z,-0.57
2018-02-24T07:31:24.165Z,-0.68
2018-02-24T07:32:23.925Z,-0.64
2018-02-24T07:33:23.677Z,-0.53
2018-02-24T07:34:24.200Z,-0.71
2018-02-24T07:35:23.952Z,-0.64
2018-02-24T07:36:24.217Z,-0.74
2018-02-24T07:37:23.979Z,-0.64
2018-02-24T07:38:23.986Z,-0.49
2018-02-24T07:39:24.251Z,-0.47
2018-02-24T07:40:24.257Z,-0.61
2018-02-24T07:41:24.019Z,-0.71
2018-02-24T07:42:24.276Z,-0.56
2018-02-24T07:43:24.036Z,-0.41
2018-02-24T07:44:24.357Z,-0.47
2018-02-24T07:45:24.306Z,-0.62
2018-02-24T07:46:24.324Z,-0.52
2018-02-24T07:47:24.078Z,-0.57
2018-02-24T07:48:24.338Z,-0.49
2018-02-24T07:49:24.348Z,-0.47
2018-02-24T07:50:24.362Z,-0.39
2018-02-24T07:51:24.386Z,-0.26
2018-02-24T07:52:24.379Z,-0.2
2018-02-24T07:53:24.139Z,-0.14
2018-02-24T07:54:24.148Z,-0.21
2018-02-24T07:55:24.412Z,-0.21
2018-02-24T07:56:23.914Z,-0.21
2018-02-24T07:57:24.179Z,-0.21
2018-02-24T07:58:23.933Z,-0.25
2018-02-24T07:59:24.251Z,-0.34
2018-02-24T08:00:24.207Z,-0.38
2018-02-24T08:01:24.479Z,-0.53
2018-02-24T08:02:24.512Z,-0.53
2018-02-24T08:03:24.500Z,-0.5
2018-02-24T08:04:24.306Z,-0.65
2018-02-24T08:05:24.526Z,-0.53
2018-02-24T08:06:24.275Z,-0.38
2018-02-24T08:07:24.282Z,-0.38
2018-02-24T08:08:24.551Z,-0.46
2018-02-24T08:09:24.571Z,-0.52
2018-02-24T08:10:24.576Z,-0.41
2018-02-24T08:11:24.581Z,-0.25
2018-02-24T08:12:24.593Z,-0.44
2018-02-24T08:13:24.604Z,-0.38
2018-02-24T08:14:24.618Z,-0.35
2018-02-24T08:15:24.631Z,-0.08
2018-02-24T08:16:24.132Z,0.05
2018-02-24T08:17:24.644Z,-0.2
2018-02-24T08:18:24.400Z,-0.26
2018-02-24T08:19:24.828Z,-0.31
2018-02-24T08:20:24.683Z,-0.25
2018-02-24T08:21:24.436Z,-0.02
2018-02-24T08:22:24.703Z,0.16
2018-02-24T08:23:24.450Z,-0.14
2018-02-24T08:24:24.716Z,-0.15
2018-02-24T08:25:24.733Z,-0.17
2018-02-24T08:26:24.741Z,-0.26
2018-02-24T08:27:24.795Z,-0.18
2018-02-24T08:28:24.770Z,-0.13
2018-02-24T08:29:24.770Z,-0.1
2018-02-24T08:30:24.533Z,-0.32
2018-02-24T08:31:24.793Z,-0.2
2018-02-24T08:32:24.806Z,-0.11
2018-02-24T08:33:24.824Z,0.11
2018-02-24T08:34:24.877Z,0.11
2018-02-24T08:35:24.837Z,0.12
2018-02-24T08:36:24.878Z,0.21
2018-02-24T08:37:24.608Z,0.16
2018-02-24T08:38:24.614Z,0.12
2018-02-24T08:39:25.007Z,0.05
2018-02-24T08:40:24.887Z,0.03
2018-02-24T08:41:24.904Z,0.04
2018-02-24T08:42:24.660Z,-0.25
2018-02-24T08:43:24.926Z,-0.2
2018-02-24T08:44:24.681Z,-0.21
2018-02-24T08:45:24.949Z,-0.07
2018-02-24T08:46:24.963Z,0.01
2018-02-24T08:47:24.972Z,0.04
2018-02-24T08:48:24.980Z,0.22
2018-02-24T08:49:24.482Z,0.25
2018-02-24T08:50:25.017Z,0.36
2018-02-24T08:51:25.020Z,0.44
2018-02-24T08:52:24.793Z,0.44
2018-02-24T08:53:25.035Z,0.49
2018-02-24T08:54:24.953Z,0.56
2018-02-24T08:55:24.805Z,0.68
2018-02-24T08:56:24.563Z,0.62
2018-02-24T08:57:25.084Z,0.8
2018-02-24T08:58:24.840Z,0.7
2018-02-24T08:59:25.156Z,0.91
2018-02-24T09:00:24.864Z,1.06
2018-02-24T09:01:25.141Z,1.05
2018-02-24T09:02:25.138Z,1.1
2018-02-24T09:03:25.153Z,1.05
2018-02-24T09:04:24.653Z,1.28
2018-02-24T09:05:24.920Z,1.3
2018-02-24T09:06:25.192Z,1.38
2018-02-24T09:07:25.196Z,1.19
2018-02-24T09:08:25.213Z,1.3
2018-02-24T09:09:25.231Z,1.48
2018-02-24T09:10:25.243Z,1.48
2018-02-24T09:11:25.249Z,1.32
2018-02-24T09:12:25.256Z,1.19
2018-02-24T09:13:25.020Z,1.35
2018-02-24T09:14:25.083Z,1.44
2018-02-24T09:15:25.043Z,1.49
2018-02-24T09:16:25.064Z,1.73
2018-02-24T09:17:25.071Z,1.59
2018-02-24T09:18:25.078Z,1.41
2018-02-24T09:19:25.093Z,1.35
2018-02-24T09:20:25.355Z,1.3
2018-02-24T09:21:25.116Z,1.16
2018-02-24T09:22:25.127Z,1.24
2018-02-24T09:23:25.148Z,1.14
2018-02-24T09:24:25.499Z,1.13
2018-02-24T09:25:25.224Z,1.1
2018-02-24T09:26:25.432Z,1.17
2018-02-24T09:27:25.462Z,1.02
2018-02-24T09:28:25.203Z,0.92
2018-02-24T09:29:25.515Z,1.14
2018-02-24T09:30:25.225Z,1.4
2018-02-24T09:31:25.238Z,1.44
2018-02-24T09:32:25.509Z,1.58
2018-02-24T09:33:25.517Z,1.48
2018-02-24T09:34:25.272Z,1.58
2018-02-24T09:35:25.284Z,1.76
2018-02-24T09:36:25.297Z,1.77
2018-02-24T09:37:25.310Z,1.74
2018-02-24T09:38:25.069Z,1.92
2018-02-24T09:39:25.076Z,2
2018-02-24T09:40:25.347Z,2.11
2018-02-24T09:41:25.356Z,2.1
2018-02-24T09:42:25.389Z,2.2
2018-02-24T09:43:25.380Z,2.28
2018-02-24T09:44:25.209Z,2.36
2018-02-24T09:45:25.659Z,2.24
2018-02-24T09:46:25.416Z,2.25
2018-02-24T09:47:25.429Z,2.25
2018-02-24T09:48:25.442Z,2.39
2018-02-24T09:49:25.468Z,2.42
2018-02-24T09:50:25.720Z,2.28
2018-02-24T09:51:25.503Z,2.44
2018-02-24T09:52:25.498Z,2.5
2018-02-24T09:53:25.511Z,2.35
2018-02-24T09:54:25.774Z,2.22
2018-02-24T09:55:25.785Z,2.32
2018-02-24T09:56:25.543Z,2.32
2018-02-24T09:57:25.627Z,2.33
2018-02-24T09:58:25.572Z,2.44
2018-02-24T09:59:25.886Z,2.47
2018-02-24T10:00:25.850Z,2.44
2018-02-24T10:01:25.607Z,2.44
2018-02-24T10:02:25.624Z,2.24
2018-02-24T10:03:25.634Z,2.25
2018-02-24T10:04:25.698Z,2.28
2018-02-24T10:05:25.914Z,2.25
2018-02-24T10:06:25.923Z,2.24
2018-02-24T10:07:25.947Z,2.04
2018-02-24T10:08:25.954Z,2.13
2018-02-24T10:09:25.714Z,2.14
2018-02-24T10:10:25.472Z,2.18
2018-02-24T10:11:25.733Z,2.14
2018-02-24T10:12:25.750Z,2.18
2018-02-24T10:13:26.015Z,2.22
2018-02-24T10:14:26.029Z,2.24
2018-02-24T10:15:25.790Z,2
2018-02-24T10:16:25.803Z,2.06
2018-02-24T10:17:26.075Z,2.26
2018-02-24T10:18:26.078Z,2.24
2018-02-24T10:19:25.887Z,2.22
2018-02-24T10:20:25.855Z,2.24
2018-02-24T10:21:26.116Z,2.06
2018-02-24T10:22:26.134Z,2.13
2018-02-24T10:23:26.145Z,2.32
2018-02-24T10:24:25.648Z,2.44
2018-02-24T10:25:25.938Z,2.51
2018-02-24T10:26:26.187Z,2.56
2018-02-24T10:27:26.194Z,2.86
2018-02-24T10:28:25.948Z,3.11
2018-02-24T10:29:25.962Z,3.21
2018-02-24T10:30:26.234Z,3.36
2018-02-24T10:31:26.251Z,3.62
2018-02-24T10:32:26.263Z,3.6
2018-02-24T10:33:26.025Z,3.73
2018-02-24T10:34:26.342Z,3.94
2018-02-24T10:35:25.801Z,4.04
2018-02-24T10:36:26.071Z,4.08
2018-02-24T10:37:26.340Z,4.17
2018-02-24T10:38:26.109Z,4.23
2018-02-24T10:39:26.378Z,4.58
2018-02-24T10:40:26.138Z,4.77
2018-02-24T10:41:26.159Z,4.74
2018-02-24T10:42:26.428Z,5.2
2018-02-24T10:43:26.492Z,5.15
2018-02-24T10:44:26.474Z,5.28
2018-02-24T10:45:26.488Z,5.44
2018-02-24T10:46:26.008Z,5.73
2018-02-24T10:47:26.535Z,5.99
2018-02-24T10:48:26.549Z,6.12
2018-02-24T10:49:26.363Z,6.19
2018-02-24T10:50:26.329Z,6.11
2018-02-24T10:51:26.612Z,5.97
2018-02-24T10:52:26.630Z,6.01
2018-02-24T10:53:26.391Z,5.93
2018-02-24T10:54:26.667Z,6.08
2018-02-24T10:55:26.694Z,6.12
2018-02-24T10:56:26.707Z,6.35
2018-02-24T10:57:26.522Z,6.64
2018-02-24T10:58:26.764Z,6.95
2018-02-24T10:59:26.583Z,6.95
2018-02-24T11:00:26.801Z,7.23
2018-02-24T11:01:26.566Z,7.15
2018-02-24T11:02:26.848Z,7.07
2018-02-24T11:03:26.865Z,7.4
2018-02-24T11:04:26.688Z,7.36
2018-02-24T11:05:26.673Z,6.82
2018-02-24T11:06:26.934Z,7.07
2018-02-24T11:07:26.445Z,6.77
2018-02-24T11:08:26.978Z,6.67
2018-02-24T11:09:27.003Z,7
2018-02-24T11:10:26.772Z,7.14
2018-02-24T11:11:27.111Z,7.33
2018-02-24T11:12:26.822Z,7.56
2018-02-24T11:13:27.089Z,7.72
2018-02-24T11:14:27.119Z,8.13
2018-02-24T11:15:27.139Z,8.63
2018-02-24T11:16:27.164Z,8.45
2018-02-24T11:17:27.880Z,8.81
2018-02-24T11:18:27.209Z,9.06
2018-02-24T11:19:26.978Z,9.1
2018-02-24T11:20:27.259Z,9.32
2018-02-24T11:21:27.280Z,9.19
2018-02-24T11:22:27.357Z,9.1
2018-02-24T11:23:27.084Z,8.88
2018-02-24T11:24:27.103Z,8.85
2018-02-24T11:25:27.382Z,8.97
2018-02-24T11:26:27.401Z,8.67
2018-02-24T11:27:26.921Z,9.34
2018-02-24T11:28:27.456Z,9.48
2018-02-24T11:29:27.225Z,9.62
2018-02-24T11:30:27.251Z,9.54
2018-02-24T11:31:27.273Z,9.64
2018-02-24T11:32:27.303Z,9.54
2018-02-24T11:33:27.580Z,9.98
2018-02-24T11:34:27.353Z,10.13
2018-02-24T11:35:27.378Z,10.23
2018-02-24T11:36:27.400Z,9.91
2018-02-24T11:37:27.734Z,9.84
2018-02-24T11:38:27.454Z,9.55
2018-02-24T11:39:27.475Z,9.87
2018-02-24T11:40:27.753Z,9.89
2018-02-24T11:41:27.272Z,9.84
2018-02-24T11:42:27.807Z,9.97
2018-02-24T11:43:27.839Z,9.95
2018-02-24T11:44:27.619Z,10.38
2018-02-24T11:45:27.887Z,10.28
2018-02-24T11:46:27.922Z,10.15
2018-02-24T11:47:27.947Z,10.34
2018-02-24T11:48:27.967Z,10.63
2018-02-24T11:49:27.992Z,10.94
2018-02-24T11:50:28.019Z,10.97
2018-02-24T11:51:28.052Z,10.71
2018-02-24T11:52:28.218Z,10.89
2018-02-24T11:53:27.846Z,10.93
2018-02-24T11:54:27.868Z,10.87
2018-02-24T11:55:28.153Z,11.1
2018-02-24T11:56:28.180Z,11.17
2018-02-24T11:57:28.203Z,11.12
2018-02-24T11:58:28.231Z,11.18
2018-02-24T11:59:28.008Z,11.07
2018-02-24T12:00:28.029Z,11.17
2018-02-24T12:01:28.054Z,11.5
2018-02-24T12:02:28.435Z,11.94
2018-02-24T12:03:28.405Z,12.49
2018-02-24T12:04:28.145Z,12.28
2018-02-24T12:05:27.922Z,11.73
2018-02-24T12:06:28.190Z,11.95
2018-02-24T12:07:28.531Z,12.49
2018-02-24T12:08:28.248Z,12.82
2018-02-24T12:09:28.330Z,13.31
2018-02-24T12:10:28.554Z,13.89
2018-02-24T12:11:28.578Z,14.36
2018-02-24T12:12:28.351Z,14.25
2018-02-24T12:13:28.645Z,13.74
2018-02-24T12:14:28.409Z,13.83
2018-02-24T12:15:28.701Z,14.18
2018-02-24T12:16:28.467Z,13.87
2018-02-24T12:17:28.753Z,13.83
2018-02-24T12:18:28.267Z,13.67
2018-02-24T12:19:28.560Z,13.83
2018-02-24T12:20:28.834Z,13.62
2018-02-24T12:21:28.616Z,13.35
2018-02-24T12:22:28.942Z,13.77
2018-02-24T12:23:28.667Z,13.72
2018-02-24T12:24:28.711Z,13.72
2018-02-24T12:25:28.723Z,13.99
2018-02-24T12:26:29.017Z,13.78
2018-02-24T12:27:28.526Z,13.78
2018-02-24T12:28:28.813Z,13.44
2018-02-24T12:29:29.087Z,13.46
2018-02-24T12:30:29.121Z,13.57
2018-02-24T12:31:28.980Z,13.23
2018-02-24T12:32:28.930Z,13.67
2018-02-24T12:33:28.948Z,14.1
2018-02-24T12:34:29.236Z,14.23
2018-02-24T12:35:29.000Z,14.35
2018-02-24T12:36:29.032Z,14.41
2018-02-24T12:37:29.316Z,14.65
2018-02-24T12:38:29.091Z,14.32
2018-02-24T12:39:29.384Z,14.72
2018-02-24T12:40:29.399Z,14.79
2018-02-24T12:41:29.475Z,14.86
2018-02-24T12:42:29.469Z,14.89
2018-02-24T12:43:29.232Z,14.96
2018-02-24T12:44:29.009Z,14.96
2018-02-24T12:45:29.541Z,14.62
2018-02-24T12:46:29.582Z,15.07
2018-02-24T12:47:29.606Z,15.21
2018-02-24T12:48:29.633Z,15.17
2018-02-24T12:49:29.155Z,15.37
2018-02-24T12:50:29.439Z,14.94
2018-02-24T12:51:29.470Z,15.35
2018-02-24T12:52:29.492Z,15.82
2018-02-24T12:53:29.850Z,15.7
2018-02-24T12:54:29.305Z,15.82
2018-02-24T12:55:29.580Z,15.67
2018-02-24T12:56:29.614Z,16.01
2018-02-24T12:57:29.898Z,16.35
2018-02-24T12:58:29.929Z,16.38
2018-02-24T12:59:29.702Z,16.41
2018-02-24T13:00:29.732Z,16.42
2018-02-24T13:01:30.013Z,16.53
2018-02-24T13:02:30.051Z,16.65
2018-02-24T13:03:29.820Z,17.11
2018-02-24T13:04:29.852Z,17.71
2018-02-24T13:05:30.134Z,17.54
2018-02-24T13:06:30.178Z,17.98
2018-02-24T13:07:29.940Z,18.35